sensor_id;sensor_type;location;lat;lon;timestamp;P1;durP1;ratioP1;P2;durP2;ratioP2
58242;SDS011;50118;53.232;8.252;2023-01-09T00:00:47;5.68;;;2.50;;
58242;SDS011;50118;53.232;8.252;2023-01-09T00:03:14;4.72;;;2.47;;
58242;SDS011;50118;53.232;8.252;2023-01-09T00:05:39;4.28;;;2.47;;
58242;SDS011;50118;53.232;8.252;2023-01-09T00:08:05;5.22;;;2.53;;
58242;SDS011;50118;53.232;8.252;2023-01-09T00:10:30;4.30;;;2.42;;
58242;SDS011;50118;53.232;8.252;2023-01-09T00:12:55;3.92;;;2.33;;
58242;SDS011;50118;53.232;8.252;2023-01-09T00:15:21;6.07;;;2.30;;
58242;SDS011;50118;53.232;8.252;2023-01-09T00:17:46;5.50;;;2.45;;
58242;SDS011;50118;53.232;8.252;2023-01-09T00:20:14;3.70;;;2.08;;
58242;SDS011;50118;53.232;8.252;2023-01-09T00:22:40;6.93;;;2.50;;
58242;SDS011;50118;53.232;8.252;2023-01-09T00:25:07;8.85;;;2.45;;
58242;SDS011;50118;53.232;8.252;2023-01-09T00:27:33;4.20;;;2.28;;
58242;SDS011;50118;53.232;8.252;2023-01-09T00:29:59;4.28;;;2.33;;
58242;SDS011;50118;53.232;8.252;2023-01-09T00:32:25;4.45;;;2.03;;
58242;SDS011;50118;53.232;8.252;2023-01-09T00:34:51;3.72;;;2.13;;
58242;SDS011;50118;53.232;8.252;2023-01-09T00:37:17;4.28;;;2.10;;
58242;SDS011;50118;53.232;8.252;2023-01-09T00:39:42;5.15;;;2.15;;
58242;SDS011;50118;53.232;8.252;2023-01-09T00:42:09;5.10;;;2.00;;
58242;SDS011;50118;53.232;8.252;2023-01-09T00:44:42;5.40;;;2.22;;
58242;SDS011;50118;53.232;8.252;2023-01-09T00:47:13;4.22;;;2.10;;
58242;SDS011;50118;53.232;8.252;2023-01-09T00:49:47;3.40;;;1.83;;
58242;SDS011;50118;53.232;8.252;2023-01-09T00:52:16;3.85;;;2.08;;
58242;SDS011;50118;53.232;8.252;2023-01-09T00:54:43;3.08;;;1.98;;
58242;SDS011;50118;53.232;8.252;2023-01-09T00:57:10;3.58;;;2.10;;
58242;SDS011;50118;53.232;8.252;2023-01-09T00:59:38;5.70;;;2.13;;
58242;SDS011;50118;53.232;8.252;2023-01-09T01:02:04;4.00;;;1.98;;
58242;SDS011;50118;53.232;8.252;2023-01-09T01:04:29;4.80;;;2.10;;
58242;SDS011;50118;53.232;8.252;2023-01-09T01:07:13;3.83;;;1.95;;
58242;SDS011;50118;53.232;8.252;2023-01-09T01:09:57;4.53;;;2.17;;
58242;SDS011;50118;53.232;8.252;2023-01-09T01:12:22;4.88;;;2.10;;
58242;SDS011;50118;53.232;8.252;2023-01-09T01:14:48;4.88;;;2.15;;
58242;SDS011;50118;53.232;8.252;2023-01-09T01:17:13;3.78;;;2.42;;
58242;SDS011;50118;53.232;8.252;2023-01-09T01:19:38;5.68;;;2.30;;
58242;SDS011;50118;53.232;8.252;2023-01-09T01:22:04;3.83;;;2.47;;
58242;SDS011;50118;53.232;8.252;2023-01-09T01:24:29;4.32;;;2.40;;
58242;SDS011;50118;53.232;8.252;2023-01-09T01:26:55;5.45;;;2.60;;
58242;SDS011;50118;53.232;8.252;2023-01-09T01:29:20;2.95;;;2.08;;
58242;SDS011;50118;53.232;8.252;2023-01-09T01:31:46;5.45;;;2.38;;
58242;SDS011;50118;53.232;8.252;2023-01-09T01:34:11;4.95;;;2.50;;
58242;SDS011;50118;53.232;8.252;2023-01-09T01:36:36;4.38;;;2.33;;
58242;SDS011;50118;53.232;8.252;2023-01-09T01:39:02;5.05;;;2.55;;
58242;SDS011;50118;53.232;8.252;2023-01-09T01:41:27;4.57;;;2.50;;
58242;SDS011;50118;53.232;8.252;2023-01-09T01:43:57;4.70;;;2.53;;
58242;SDS011;50118;53.232;8.252;2023-01-09T01:46:25;4.50;;;2.92;;
58242;SDS011;50118;53.232;8.252;2023-01-09T01:49:13;6.22;;;2.75;;
58242;SDS011;50118;53.232;8.252;2023-01-09T01:51:41;5.30;;;2.80;;
58242;SDS011;50118;53.232;8.252;2023-01-09T01:54:12;6.50;;;2.88;;
58242;SDS011;50118;53.232;8.252;2023-01-09T01:56:50;6.15;;;2.72;;
58242;SDS011;50118;53.232;8.252;2023-01-09T01:59:28;7.10;;;2.95;;
58242;SDS011;50118;53.232;8.252;2023-01-09T02:01:59;6.95;;;2.85;;
58242;SDS011;50118;53.232;8.252;2023-01-09T02:04:26;6.18;;;3.20;;
58242;SDS011;50118;53.232;8.252;2023-01-09T02:06:53;3.85;;;2.67;;
58242;SDS011;50118;53.232;8.252;2023-01-09T02:09:20;5.30;;;2.80;;
58242;SDS011;50118;53.232;8.252;2023-01-09T02:11:48;5.65;;;2.90;;
58242;SDS011;50118;53.232;8.252;2023-01-09T02:14:22;6.65;;;3.42;;
58242;SDS011;50118;53.232;8.252;2023-01-09T02:22:35;5.65;;;3.20;;
58242;SDS011;50118;53.232;8.252;2023-01-09T02:25:08;5.70;;;3.35;;
58242;SDS011;50118;53.232;8.252;2023-01-09T02:30:38;5.60;;;3.17;;
58242;SDS011;50118;53.232;8.252;2023-01-09T02:36:03;7.18;;;3.38;;
58242;SDS011;50118;53.232;8.252;2023-01-09T02:44:46;6.78;;;3.47;;
58242;SDS011;50118;53.232;8.252;2023-01-09T02:49:41;6.88;;;3.38;;
58242;SDS011;50118;53.232;8.252;2023-01-09T03:08:58;6.47;;;3.92;;
58242;SDS011;50118;53.232;8.252;2023-01-09T03:11:29;5.55;;;3.53;;
58242;SDS011;50118;53.232;8.252;2023-01-09T03:14:03;6.18;;;3.47;;
58242;SDS011;50118;53.232;8.252;2023-01-09T03:16:34;5.80;;;3.78;;
58242;SDS011;50118;53.232;8.252;2023-01-09T03:19:01;6.97;;;3.55;;
58242;SDS011;50118;53.232;8.252;2023-01-09T03:21:29;6.50;;;3.75;;
58242;SDS011;50118;53.232;8.252;2023-01-09T03:23:57;7.15;;;3.90;;
58242;SDS011;50118;53.232;8.252;2023-01-09T03:26:24;7.40;;;4.00;;
58242;SDS011;50118;53.232;8.252;2023-01-09T03:28:50;7.22;;;4.03;;
58242;SDS011;50118;53.232;8.252;2023-01-09T03:31:16;8.13;;;3.63;;
58242;SDS011;50118;53.232;8.252;2023-01-09T03:33:42;6.25;;;3.60;;
58242;SDS011;50118;53.232;8.252;2023-01-09T03:36:09;7.60;;;3.60;;
58242;SDS011;50118;53.232;8.252;2023-01-09T03:38:36;5.57;;;3.35;;
58242;SDS011;50118;53.232;8.252;2023-01-09T03:41:01;4.40;;;3.08;;
58242;SDS011;50118;53.232;8.252;2023-01-09T03:43:27;5.57;;;3.20;;
58242;SDS011;50118;53.232;8.252;2023-01-09T03:45:53;5.15;;;2.95;;
58242;SDS011;50118;53.232;8.252;2023-01-09T03:48:18;4.53;;;2.90;;
58242;SDS011;50118;53.232;8.252;2023-01-09T03:50:43;5.60;;;3.10;;
58242;SDS011;50118;53.232;8.252;2023-01-09T03:53:13;6.30;;;3.28;;
58242;SDS011;50118;53.232;8.252;2023-01-09T03:55:42;9.77;;;3.60;;
58242;SDS011;50118;53.232;8.252;2023-01-09T03:58:08;7.97;;;3.22;;
58242;SDS011;50118;53.232;8.252;2023-01-09T04:00:33;5.30;;;3.03;;
58242;SDS011;50118;53.232;8.252;2023-01-09T04:02:58;5.03;;;3.38;;
58242;SDS011;50118;53.232;8.252;2023-01-09T04:05:24;5.13;;;3.20;;
58242;SDS011;50118;53.232;8.252;2023-01-09T04:07:49;4.47;;;3.08;;
58242;SDS011;50118;53.232;8.252;2023-01-09T04:10:15;5.10;;;3.00;;
58242;SDS011;50118;53.232;8.252;2023-01-09T04:12:40;5.35;;;3.13;;
58242;SDS011;50118;53.232;8.252;2023-01-09T04:15:06;5.78;;;3.35;;
58242;SDS011;50118;53.232;8.252;2023-01-09T04:17:31;6.20;;;3.40;;
58242;SDS011;50118;53.232;8.252;2023-01-09T04:19:57;4.82;;;3.10;;
58242;SDS011;50118;53.232;8.252;2023-01-09T04:22:23;3.97;;;2.58;;
58242;SDS011;50118;53.232;8.252;2023-01-09T04:24:49;4.50;;;2.80;;
58242;SDS011;50118;53.232;8.252;2023-01-09T04:27:14;5.32;;;2.83;;
58242;SDS011;50118;53.232;8.252;2023-01-09T04:29:40;5.57;;;3.33;;
58242;SDS011;50118;53.232;8.252;2023-01-09T04:32:05;4.80;;;2.80;;
58242;SDS011;50118;53.232;8.252;2023-01-09T04:34:31;7.00;;;3.03;;
58242;SDS011;50118;53.232;8.252;2023-01-09T04:36:56;4.63;;;2.63;;
58242;SDS011;50118;53.232;8.252;2023-01-09T04:39:21;6.55;;;2.70;;
58242;SDS011;50118;53.232;8.252;2023-01-09T04:41:47;3.72;;;2.42;;
58242;SDS011;50118;53.232;8.252;2023-01-09T04:44:13;3.88;;;2.38;;
58242;SDS011;50118;53.232;8.252;2023-01-09T04:46:38;3.97;;;2.50;;
58242;SDS011;50118;53.232;8.252;2023-01-09T04:49:04;4.47;;;2.55;;
58242;SDS011;50118;53.232;8.252;2023-01-09T04:51:29;4.40;;;2.33;;
58242;SDS011;50118;53.232;8.252;2023-01-09T04:53:54;4.30;;;2.22;;
58242;SDS011;50118;53.232;8.252;2023-01-09T04:56:20;3.70;;;2.10;;
58242;SDS011;50118;53.232;8.252;2023-01-09T04:58:45;4.63;;;2.17;;
58242;SDS011;50118;53.232;8.252;2023-01-09T05:01:11;5.30;;;2.30;;
58242;SDS011;50118;53.232;8.252;2023-01-09T05:03:36;3.72;;;2.30;;
58242;SDS011;50118;53.232;8.252;2023-01-09T05:06:02;4.70;;;2.20;;
58242;SDS011;50118;53.232;8.252;2023-01-09T05:08:28;3.97;;;2.20;;
58242;SDS011;50118;53.232;8.252;2023-01-09T05:10:53;4.97;;;2.50;;
58242;SDS011;50118;53.232;8.252;2023-01-09T05:13:18;4.93;;;2.70;;
58242;SDS011;50118;53.232;8.252;2023-01-09T05:15:44;5.47;;;2.83;;
58242;SDS011;50118;53.232;8.252;2023-01-09T05:18:09;6.15;;;2.72;;
58242;SDS011;50118;53.232;8.252;2023-01-09T05:20:35;5.22;;;2.97;;
58242;SDS011;50118;53.232;8.252;2023-01-09T05:23:01;7.13;;;3.28;;
58242;SDS011;50118;53.232;8.252;2023-01-09T05:25:26;5.82;;;3.38;;
58242;SDS011;50118;53.232;8.252;2023-01-09T05:27:52;7.22;;;3.30;;
58242;SDS011;50118;53.232;8.252;2023-01-09T05:30:17;5.90;;;3.17;;
58242;SDS011;50118;53.232;8.252;2023-01-09T05:32:43;8.13;;;3.50;;
58242;SDS011;50118;53.232;8.252;2023-01-09T05:35:09;7.40;;;4.18;;
58242;SDS011;50118;53.232;8.252;2023-01-09T05:37:35;5.65;;;3.78;;
58242;SDS011;50118;53.232;8.252;2023-01-09T05:40:00;5.55;;;3.10;;
58242;SDS011;50118;53.232;8.252;2023-01-09T05:42:25;8.13;;;3.88;;
58242;SDS011;50118;53.232;8.252;2023-01-09T05:44:51;7.00;;;3.97;;
58242;SDS011;50118;53.232;8.252;2023-01-09T05:47:16;6.07;;;3.38;;
58242;SDS011;50118;53.232;8.252;2023-01-09T05:49:42;5.78;;;3.30;;
58242;SDS011;50118;53.232;8.252;2023-01-09T05:52:07;6.60;;;3.22;;
58242;SDS011;50118;53.232;8.252;2023-01-09T05:54:33;7.97;;;3.20;;
58242;SDS011;50118;53.232;8.252;2023-01-09T05:56:59;5.70;;;3.22;;
58242;SDS011;50118;53.232;8.252;2023-01-09T05:59:24;7.25;;;3.63;;
58242;SDS011;50118;53.232;8.252;2023-01-09T06:01:49;6.50;;;3.90;;
58242;SDS011;50118;53.232;8.252;2023-01-09T06:04:15;6.40;;;3.25;;
58242;SDS011;50118;53.232;8.252;2023-01-09T06:06:41;6.90;;;4.05;;
58242;SDS011;50118;53.232;8.252;2023-01-09T06:09:06;7.57;;;3.97;;
58242;SDS011;50118;53.232;8.252;2023-01-09T06:11:32;7.22;;;3.60;;
58242;SDS011;50118;53.232;8.252;2023-01-09T06:14:02;7.55;;;4.05;;
58242;SDS011;50118;53.232;8.252;2023-01-09T06:16:28;7.10;;;3.60;;
58242;SDS011;50118;53.232;8.252;2023-01-09T06:18:54;6.63;;;3.83;;
58242;SDS011;50118;53.232;8.252;2023-01-09T06:21:19;10.70;;;4.28;;
58242;SDS011;50118;53.232;8.252;2023-01-09T06:23:45;8.77;;;3.80;;
58242;SDS011;50118;53.232;8.252;2023-01-09T06:26:10;6.43;;;3.72;;
58242;SDS011;50118;53.232;8.252;2023-01-09T06:28:35;8.65;;;4.32;;
58242;SDS011;50118;53.232;8.252;2023-01-09T06:31:01;10.15;;;4.22;;
58242;SDS011;50118;53.232;8.252;2023-01-09T06:33:26;8.13;;;4.15;;
58242;SDS011;50118;53.232;8.252;2023-01-09T06:35:52;7.60;;;4.07;;
58242;SDS011;50118;53.232;8.252;2023-01-09T06:38:17;9.65;;;5.00;;
58242;SDS011;50118;53.232;8.252;2023-01-09T06:40:43;8.40;;;4.93;;
58242;SDS011;50118;53.232;8.252;2023-01-09T06:43:08;11.48;;;5.72;;
58242;SDS011;50118;53.232;8.252;2023-01-09T06:45:34;14.13;;;6.97;;
58242;SDS011;50118;53.232;8.252;2023-01-09T06:47:59;14.07;;;6.93;;
58242;SDS011;50118;53.232;8.252;2023-01-09T06:50:25;15.00;;;8.18;;
58242;SDS011;50118;53.232;8.252;2023-01-09T06:52:50;13.25;;;7.50;;
58242;SDS011;50118;53.232;8.252;2023-01-09T06:55:15;16.17;;;9.48;;
58242;SDS011;50118;53.232;8.252;2023-01-09T06:57:41;16.05;;;8.77;;
58242;SDS011;50118;53.232;8.252;2023-01-09T07:00:07;16.00;;;8.70;;
58242;SDS011;50118;53.232;8.252;2023-01-09T07:02:33;15.35;;;8.98;;
58242;SDS011;50118;53.232;8.252;2023-01-09T07:04:58;16.50;;;8.90;;
58242;SDS011;50118;53.232;8.252;2023-01-09T07:07:24;15.18;;;8.18;;
58242;SDS011;50118;53.232;8.252;2023-01-09T07:09:50;15.55;;;7.95;;
58242;SDS011;50118;53.232;8.252;2023-01-09T07:12:15;18.20;;;8.02;;
58242;SDS011;50118;53.232;8.252;2023-01-09T07:14:41;15.32;;;7.78;;
58242;SDS011;50118;53.232;8.252;2023-01-09T07:17:07;15.57;;;9.05;;
58242;SDS011;50118;53.232;8.252;2023-01-09T07:19:33;14.98;;;8.50;;
58242;SDS011;50118;53.232;8.252;2023-01-09T07:21:59;19.27;;;8.95;;
58242;SDS011;50118;53.232;8.252;2023-01-09T07:24:24;21.60;;;9.50;;
58242;SDS011;50118;53.232;8.252;2023-01-09T07:26:50;20.83;;;9.60;;
58242;SDS011;50118;53.232;8.252;2023-01-09T07:29:15;18.20;;;10.30;;
58242;SDS011;50118;53.232;8.252;2023-01-09T07:31:41;23.73;;;10.80;;
58242;SDS011;50118;53.232;8.252;2023-01-09T07:34:06;25.13;;;12.30;;
58242;SDS011;50118;53.232;8.252;2023-01-09T07:36:31;23.42;;;11.82;;
58242;SDS011;50118;53.232;8.252;2023-01-09T07:38:57;29.08;;;13.18;;
58242;SDS011;50118;53.232;8.252;2023-01-09T07:41:22;24.65;;;11.98;;
58242;SDS011;50118;53.232;8.252;2023-01-09T07:43:47;28.20;;;12.40;;
58242;SDS011;50118;53.232;8.252;2023-01-09T07:46:13;23.92;;;11.88;;
58242;SDS011;50118;53.232;8.252;2023-01-09T07:48:38;24.20;;;11.82;;
58242;SDS011;50118;53.232;8.252;2023-01-09T07:51:04;22.42;;;10.85;;
58242;SDS011;50118;53.232;8.252;2023-01-09T07:53:30;23.48;;;11.63;;
58242;SDS011;50118;53.232;8.252;2023-01-09T07:55:56;24.10;;;11.25;;
58242;SDS011;50118;53.232;8.252;2023-01-09T07:58:21;23.92;;;11.55;;
58242;SDS011;50118;53.232;8.252;2023-01-09T08:00:46;22.90;;;11.95;;
58242;SDS011;50118;53.232;8.252;2023-01-09T08:03:12;21.23;;;10.63;;
58242;SDS011;50118;53.232;8.252;2023-01-09T08:05:37;21.50;;;11.43;;
58242;SDS011;50118;53.232;8.252;2023-01-09T08:08:03;24.02;;;11.68;;
58242;SDS011;50118;53.232;8.252;2023-01-09T08:10:28;20.15;;;10.68;;
58242;SDS011;50118;53.232;8.252;2023-01-09T08:12:54;19.83;;;10.95;;
58242;SDS011;50118;53.232;8.252;2023-01-09T08:15:19;19.85;;;10.25;;
58242;SDS011;50118;53.232;8.252;2023-01-09T08:17:45;19.98;;;10.07;;
58242;SDS011;50118;53.232;8.252;2023-01-09T08:20:11;18.05;;;9.80;;
58242;SDS011;50118;53.232;8.252;2023-01-09T08:22:42;22.05;;;10.13;;
58242;SDS011;50118;53.232;8.252;2023-01-09T08:25:13;19.77;;;9.75;;
58242;SDS011;50118;53.232;8.252;2023-01-09T08:27:39;18.25;;;9.48;;
58242;SDS011;50118;53.232;8.252;2023-01-09T08:30:05;19.35;;;9.32;;
58242;SDS011;50118;53.232;8.252;2023-01-09T08:32:34;17.48;;;9.50;;
58242;SDS011;50118;53.232;8.252;2023-01-09T08:34:59;16.60;;;9.52;;
58242;SDS011;50118;53.232;8.252;2023-01-09T08:37:25;16.13;;;8.60;;
58242;SDS011;50118;53.232;8.252;2023-01-09T08:39:51;14.68;;;8.45;;
58242;SDS011;50118;53.232;8.252;2023-01-09T08:42:17;14.25;;;7.90;;
58242;SDS011;50118;53.232;8.252;2023-01-09T08:45:01;15.18;;;7.60;;
58242;SDS011;50118;53.232;8.252;2023-01-09T08:47:45;12.98;;;7.45;;
58242;SDS011;50118;53.232;8.252;2023-01-09T08:50:11;13.88;;;8.02;;
58242;SDS011;50118;53.232;8.252;2023-01-09T08:52:37;12.52;;;6.90;;
58242;SDS011;50118;53.232;8.252;2023-01-09T08:55:02;14.35;;;7.75;;
58242;SDS011;50118;53.232;8.252;2023-01-09T08:57:28;14.45;;;7.28;;
58242;SDS011;50118;53.232;8.252;2023-01-09T08:59:54;14.43;;;8.02;;
58242;SDS011;50118;53.232;8.252;2023-01-09T09:02:19;11.52;;;6.40;;
58242;SDS011;50118;53.232;8.252;2023-01-09T09:04:45;13.05;;;7.32;;
58242;SDS011;50118;53.232;8.252;2023-01-09T09:07:12;12.30;;;7.20;;
58242;SDS011;50118;53.232;8.252;2023-01-09T09:09:38;11.27;;;6.57;;
58242;SDS011;50118;53.232;8.252;2023-01-09T09:12:03;15.40;;;6.90;;
58242;SDS011;50118;53.232;8.252;2023-01-09T09:14:29;16.55;;;6.93;;
58242;SDS011;50118;53.232;8.252;2023-01-09T09:17:13;11.80;;;5.68;;
58242;SDS011;50118;53.232;8.252;2023-01-09T09:19:38;13.38;;;6.30;;
58242;SDS011;50118;53.232;8.252;2023-01-09T09:22:06;16.10;;;6.70;;
58242;SDS011;50118;53.232;8.252;2023-01-09T09:24:31;12.40;;;6.10;;
58242;SDS011;50118;53.232;8.252;2023-01-09T09:26:57;10.82;;;5.55;;
58242;SDS011;50118;53.232;8.252;2023-01-09T09:29:22;12.48;;;5.88;;
58242;SDS011;50118;53.232;8.252;2023-01-09T09:31:48;16.85;;;6.32;;
58242;SDS011;50118;53.232;8.252;2023-01-09T09:34:13;9.95;;;5.50;;
58242;SDS011;50118;53.232;8.252;2023-01-09T09:36:38;11.80;;;5.80;;
58242;SDS011;50118;53.232;8.252;2023-01-09T09:39:04;10.73;;;6.13;;
58242;SDS011;50118;53.232;8.252;2023-01-09T09:44:55;11.73;;;5.72;;
58242;SDS011;50118;53.232;8.252;2023-01-09T09:53:09;13.25;;;5.95;;
58242;SDS011;50118;53.232;8.252;2023-01-09T09:55:36;10.00;;;5.70;;
58242;SDS011;50118;53.232;8.252;2023-01-09T09:58:20;9.75;;;5.72;;
58242;SDS011;50118;53.232;8.252;2023-01-09T10:00:47;10.13;;;5.53;;
58242;SDS011;50118;53.232;8.252;2023-01-09T10:03:27;9.70;;;5.68;;
58242;SDS011;50118;53.232;8.252;2023-01-09T10:06:01;12.35;;;5.63;;
58242;SDS011;50118;53.232;8.252;2023-01-09T10:11:26;9.68;;;5.68;;
58242;SDS011;50118;53.232;8.252;2023-01-09T10:13:58;12.85;;;5.22;;
58242;SDS011;50118;53.232;8.252;2023-01-09T10:25:34;12.00;;;5.85;;
58242;SDS011;50118;53.232;8.252;2023-01-09T10:30:39;10.88;;;5.63;;
58242;SDS011;50118;53.232;8.252;2023-01-09T10:36:53;12.30;;;5.22;;
58242;SDS011;50118;53.232;8.252;2023-01-09T10:39:07;12.40;;;5.38;;
58242;SDS011;50118;53.232;8.252;2023-01-09T10:44:33;12.15;;;5.65;;
58242;SDS011;50118;53.232;8.252;2023-01-09T10:47:26;12.77;;;6.28;;
58242;SDS011;50118;53.232;8.252;2023-01-09T10:49:58;14.02;;;5.80;;
58242;SDS011;50118;53.232;8.252;2023-01-09T10:52:36;11.30;;;5.93;;
58242;SDS011;50118;53.232;8.252;2023-01-09T10:57:48;13.73;;;6.50;;
58242;SDS011;50118;53.232;8.252;2023-01-09T11:00:19;11.55;;;6.47;;
58242;SDS011;50118;53.232;8.252;2023-01-09T11:02:47;12.73;;;7.10;;
58242;SDS011;50118;53.232;8.252;2023-01-09T11:05:31;15.15;;;6.82;;
58242;SDS011;50118;53.232;8.252;2023-01-09T11:10:52;12.68;;;7.10;;
58242;SDS011;50118;53.232;8.252;2023-01-09T11:16:07;13.65;;;7.47;;
58242;SDS011;50118;53.232;8.252;2023-01-09T11:18:51;14.27;;;7.55;;
58242;SDS011;50118;53.232;8.252;2023-01-09T11:26:48;14.63;;;7.90;;
58242;SDS011;50118;53.232;8.252;2023-01-09T11:29:19;14.85;;;7.68;;
58242;SDS011;50118;53.232;8.252;2023-01-09T11:31:55;14.77;;;7.50;;
58242;SDS011;50118;53.232;8.252;2023-01-09T11:34:29;13.23;;;7.88;;
58242;SDS011;50118;53.232;8.252;2023-01-09T11:37:01;14.77;;;7.88;;
58242;SDS011;50118;53.232;8.252;2023-01-09T11:39:31;12.80;;;7.60;;
58242;SDS011;50118;53.232;8.252;2023-01-09T11:42:02;13.25;;;7.55;;
58242;SDS011;50118;53.232;8.252;2023-01-09T11:44:30;12.75;;;7.40;;
58242;SDS011;50118;53.232;8.252;2023-01-09T11:46:57;14.15;;;8.20;;
58242;SDS011;50118;53.232;8.252;2023-01-09T11:54:51;12.43;;;6.40;;
58242;SDS011;50118;53.232;8.252;2023-01-09T11:57:28;12.48;;;7.10;;
58242;SDS011;50118;53.232;8.252;2023-01-09T11:59:56;11.93;;;6.72;;
58242;SDS011;50118;53.232;8.252;2023-01-09T12:05:26;11.38;;;6.00;;
58242;SDS011;50118;53.232;8.252;2023-01-09T12:11:18;9.23;;;5.63;;
58242;SDS011;50118;53.232;8.252;2023-01-09T12:13:43;9.00;;;5.72;;
58242;SDS011;50118;53.232;8.252;2023-01-09T12:19:36;6.93;;;4.30;;
58242;SDS011;50118;53.232;8.252;2023-01-09T12:27:08;8.10;;;4.80;;
58242;SDS011;50118;53.232;8.252;2023-01-09T12:38:22;9.02;;;4.55;;
58242;SDS011;50118;53.232;8.252;2023-01-09T12:44:29;9.25;;;4.18;;
58242;SDS011;50118;53.232;8.252;2023-01-09T12:47:14;8.23;;;3.92;;
58242;SDS011;50118;53.232;8.252;2023-01-09T12:50:14;7.93;;;4.43;;
58242;SDS011;50118;53.232;8.252;2023-01-09T12:53:04;6.25;;;3.95;;
58242;SDS011;50118;53.232;8.252;2023-01-09T12:56:02;8.32;;;4.18;;
58242;SDS011;50118;53.232;8.252;2023-01-09T12:58:45;10.02;;;4.82;;
58242;SDS011;50118;53.232;8.252;2023-01-09T13:01:23;8.30;;;4.60;;
58242;SDS011;50118;53.232;8.252;2023-01-09T13:03:57;9.25;;;4.60;;
58242;SDS011;50118;53.232;8.252;2023-01-09T13:06:24;6.80;;;4.07;;
58242;SDS011;50118;53.232;8.252;2023-01-09T13:11:56;7.85;;;4.55;;
58242;SDS011;50118;53.232;8.252;2023-01-09T13:17:17;10.05;;;4.63;;
58242;SDS011;50118;53.232;8.252;2023-01-09T13:19:50;7.75;;;3.92;;
58242;SDS011;50118;53.232;8.252;2023-01-09T13:22:17;9.73;;;4.50;;
58242;SDS011;50118;53.232;8.252;2023-01-09T13:24:55;7.25;;;4.15;;
58242;SDS011;50118;53.232;8.252;2023-01-09T13:27:44;5.30;;;3.90;;
58242;SDS011;50118;53.232;8.252;2023-01-09T13:30:18;7.68;;;4.13;;
58242;SDS011;50118;53.232;8.252;2023-01-09T13:33:08;6.95;;;3.70;;
58242;SDS011;50118;53.232;8.252;2023-01-09T13:35:48;5.57;;;3.55;;
58242;SDS011;50118;53.232;8.252;2023-01-09T13:38:17;6.85;;;4.00;;
58242;SDS011;50118;53.232;8.252;2023-01-09T13:40:46;7.13;;;3.92;;
58242;SDS011;50118;53.232;8.252;2023-01-09T13:43:11;10.00;;;4.13;;
58242;SDS011;50118;53.232;8.252;2023-01-09T13:45:39;7.90;;;4.15;;
58242;SDS011;50118;53.232;8.252;2023-01-09T13:50:41;6.13;;;3.85;;
58242;SDS011;50118;53.232;8.252;2023-01-09T13:58:23;6.75;;;4.00;;
58242;SDS011;50118;53.232;8.252;2023-01-09T14:01:00;8.23;;;4.38;;
58242;SDS011;50118;53.232;8.252;2023-01-09T14:08:23;8.45;;;4.95;;
58242;SDS011;50118;53.232;8.252;2023-01-09T14:10:59;8.93;;;4.65;;
58242;SDS011;50118;53.232;8.252;2023-01-09T14:13:26;8.40;;;4.53;;
58242;SDS011;50118;53.232;8.252;2023-01-09T14:16:06;8.52;;;4.70;;
58242;SDS011;50118;53.232;8.252;2023-01-09T14:18:45;7.30;;;4.28;;
58242;SDS011;50118;53.232;8.252;2023-01-09T14:24:21;8.07;;;4.68;;
58242;SDS011;50118;53.232;8.252;2023-01-09T14:26:53;8.63;;;4.90;;
58242;SDS011;50118;53.232;8.252;2023-01-09T14:29:41;7.72;;;5.00;;
58242;SDS011;50118;53.232;8.252;2023-01-09T14:37:21;8.68;;;5.03;;
58242;SDS011;50118;53.232;8.252;2023-01-09T14:39:48;8.20;;;4.95;;
58242;SDS011;50118;53.232;8.252;2023-01-09T14:42:17;6.53;;;4.90;;
58242;SDS011;50118;53.232;8.252;2023-01-09T14:47:25;7.53;;;5.10;;
58242;SDS011;50118;53.232;8.252;2023-01-09T14:50:13;7.18;;;4.72;;
58242;SDS011;50118;53.232;8.252;2023-01-09T14:52:57;10.00;;;5.10;;
58242;SDS011;50118;53.232;8.252;2023-01-09T15:03:48;8.95;;;6.18;;
58242;SDS011;50118;53.232;8.252;2023-01-09T15:06:20;9.48;;;5.90;;
58242;SDS011;50118;53.232;8.252;2023-01-09T15:11:18;9.05;;;6.30;;
58242;SDS011;50118;53.232;8.252;2023-01-09T15:13:45;9.30;;;6.60;;
58242;SDS011;50118;53.232;8.252;2023-01-09T15:16:23;9.75;;;6.50;;
58242;SDS011;50118;53.232;8.252;2023-01-09T15:18:51;12.02;;;6.75;;
58242;SDS011;50118;53.232;8.252;2023-01-09T15:21:26;13.98;;;7.47;;
58242;SDS011;50118;53.232;8.252;2023-01-09T15:24:09;11.50;;;6.93;;
58242;SDS011;50118;53.232;8.252;2023-01-09T15:26:37;10.70;;;6.47;;
58242;SDS011;50118;53.232;8.252;2023-01-09T15:29:13;10.90;;;6.30;;
58242;SDS011;50118;53.232;8.252;2023-01-09T15:31:44;10.23;;;6.40;;
58242;SDS011;50118;53.232;8.252;2023-01-09T15:34:20;10.13;;;7.05;;
58242;SDS011;50118;53.232;8.252;2023-01-09T15:36:47;11.43;;;7.15;;
58242;SDS011;50118;53.232;8.252;2023-01-09T15:39:18;11.82;;;6.93;;
58242;SDS011;50118;53.232;8.252;2023-01-09T15:42:00;12.30;;;6.65;;
58242;SDS011;50118;53.232;8.252;2023-01-09T15:44:46;12.80;;;6.93;;
58242;SDS011;50118;53.232;8.252;2023-01-09T15:47:15;11.13;;;6.18;;
58242;SDS011;50118;53.232;8.252;2023-01-09T15:49:44;11.40;;;6.32;;
58242;SDS011;50118;53.232;8.252;2023-01-09T15:52:13;12.73;;;6.63;;
58242;SDS011;50118;53.232;8.252;2023-01-09T15:54:42;11.65;;;7.18;;
58242;SDS011;50118;53.232;8.252;2023-01-09T15:57:21;13.10;;;7.70;;
58242;SDS011;50118;53.232;8.252;2023-01-09T15:59:51;12.60;;;7.13;;
58242;SDS011;50118;53.232;8.252;2023-01-09T16:02:17;16.35;;;9.23;;
58242;SDS011;50118;53.232;8.252;2023-01-09T16:05:07;13.38;;;7.05;;
58242;SDS011;50118;53.232;8.252;2023-01-09T16:07:43;11.30;;;7.22;;
58242;SDS011;50118;53.232;8.252;2023-01-09T16:10:22;14.20;;;8.25;;
58242;SDS011;50118;53.232;8.252;2023-01-09T16:12:49;11.63;;;7.35;;
58242;SDS011;50118;53.232;8.252;2023-01-09T16:15:16;13.30;;;6.93;;
58242;SDS011;50118;53.232;8.252;2023-01-09T16:20:37;13.23;;;7.22;;
58242;SDS011;50118;53.232;8.252;2023-01-09T16:23:16;14.45;;;7.65;;
58242;SDS011;50118;53.232;8.252;2023-01-09T16:25:43;15.70;;;7.70;;
58242;SDS011;50118;53.232;8.252;2023-01-09T16:31:40;16.23;;;8.93;;
58242;SDS011;50118;53.232;8.252;2023-01-09T16:33:46;12.77;;;8.40;;
58242;SDS011;50118;53.232;8.252;2023-01-09T16:36:14;15.40;;;8.25;;
58242;SDS011;50118;53.232;8.252;2023-01-09T16:38:41;14.77;;;8.02;;
58242;SDS011;50118;53.232;8.252;2023-01-09T16:41:12;14.98;;;8.98;;
58242;SDS011;50118;53.232;8.252;2023-01-09T16:43:57;16.75;;;8.52;;
58242;SDS011;50118;53.232;8.252;2023-01-09T16:46:22;14.73;;;8.45;;
58242;SDS011;50118;53.232;8.252;2023-01-09T16:48:48;16.75;;;9.27;;
58242;SDS011;50118;53.232;8.252;2023-01-09T16:51:14;17.27;;;9.02;;
58242;SDS011;50118;53.232;8.252;2023-01-09T16:53:42;17.02;;;8.52;;
58242;SDS011;50118;53.232;8.252;2023-01-09T16:56:12;15.13;;;8.55;;
58242;SDS011;50118;53.232;8.252;2023-01-09T16:58:40;18.58;;;11.35;;
58242;SDS011;50118;53.232;8.252;2023-01-09T17:01:06;20.85;;;11.48;;
58242;SDS011;50118;53.232;8.252;2023-01-09T17:03:31;16.67;;;9.50;;
58242;SDS011;50118;53.232;8.252;2023-01-09T17:05:58;19.13;;;10.43;;
58242;SDS011;50118;53.232;8.252;2023-01-09T17:08:25;15.48;;;8.45;;
58242;SDS011;50118;53.232;8.252;2023-01-09T17:10:54;13.48;;;7.60;;
58242;SDS011;50118;53.232;8.252;2023-01-09T17:13:20;12.93;;;7.22;;
58242;SDS011;50118;53.232;8.252;2023-01-09T17:15:46;14.20;;;7.68;;
58242;SDS011;50118;53.232;8.252;2023-01-09T17:18:13;12.15;;;6.40;;
58242;SDS011;50118;53.232;8.252;2023-01-09T17:20:41;11.65;;;6.63;;
58242;SDS011;50118;53.232;8.252;2023-01-09T17:23:08;12.27;;;6.70;;
58242;SDS011;50118;53.232;8.252;2023-01-09T17:25:33;14.05;;;7.72;;
58242;SDS011;50118;53.232;8.252;2023-01-09T17:28:17;12.10;;;7.20;;
58242;SDS011;50118;53.232;8.252;2023-01-09T17:31:06;16.38;;;9.38;;